sensor_id;sensor_type;location;lat;lon;timestamp;temperature;humidity
52459;DHT22;38372;52.902;6.024;2023-07-29T00:00:49;18.20;99.90
52459;DHT22;38372;52.902;6.024;2023-07-29T00:03:15;18.20;99.90
52459;DHT22;38372;52.902;6.024;2023-07-29T00:05:41;18.20;99.90
52459;DHT22;38372;52.902;6.024;2023-07-29T00:08:07;18.10;99.90
52459;DHT22;38372;52.902;6.024;2023-07-29T00:10:36;18.10;99.90
52459;DHT22;38372;52.902;6.024;2023-07-29T00:13:02;18.10;99.90
52459;DHT22;38372;52.902;6.024;2023-07-29T00:15:28;18.00;99.90
52459;DHT22;38372;52.902;6.024;2023-07-29T00:17:54;18.00;99.90
52459;DHT22;38372;52.902;6.024;2023-07-29T00:20:19;17.90;99.90
52459;DHT22;38372;52.902;6.024;2023-07-29T00:22:45;17.90;99.90
52459;DHT22;38372;52.902;6.024;2023-07-29T00:25:11;17.90;99.90
52459;DHT22;38372;52.902;6.024;2023-07-29T00:27:37;17.80;99.90
52459;DHT22;38372;52.902;6.024;2023-07-29T00:30:03;17.80;99.90
52459;DHT22;38372;52.902;6.024;2023-07-29T00:32:29;17.70;99.90
52459;DHT22;38372;52.902;6.024;2023-07-29T00:34:56;17.70;99.90
52459;DHT22;38372;52.902;6.024;2023-07-29T00:37:21;17.60;99.90
52459;DHT22;38372;52.902;6.024;2023-07-29T00:39:47;17.60;99.90
52459;DHT22;38372;52.902;6.024;2023-07-29T00:42:13;17.60;99.90
52459;DHT22;38372;52.902;6.024;2023-07-29T00:44:38;17.50;99.90
52459;DHT22;38372;52.902;6.024;2023-07-29T00:47:05;17.40;99.90
52459;DHT22;38372;52.902;6.024;2023-07-29T00:49:32;17.40;99.90
52459;DHT22;38372;52.902;6.024;2023-07-29T00:51:58;17.40;99.90
52459;DHT22;38372;52.902;6.024;2023-07-29T00:54:24;17.30;99.90
52459;DHT22;38372;52.902;6.024;2023-07-29T00:56:50;17.30;99.90
52459;DHT22;38372;52.902;6.024;2023-07-29T00:59:16;17.30;99.90
52459;DHT22;38372;52.902;6.024;2023-07-29T01:01:42;17.20;99.90
52459;DHT22;38372;52.902;6.024;2023-07-29T01:04:08;17.20;99.90
52459;DHT22;38372;52.902;6.024;2023-07-29T01:07:03;17.20;99.90
52459;DHT22;38372;52.902;6.024;2023-07-29T01:12:22;17.30;99.90
52459;DHT22;38372;52.902;6.024;2023-07-29T01:18:10;17.20;99.90
52459;DHT22;38372;52.902;6.024;2023-07-29T01:20:41;17.20;99.90
52459;DHT22;38372;52.902;6.024;2023-07-29T01:23:07;17.20;99.90
52459;DHT22;38372;52.902;6.024;2023-07-29T01:25:33;17.20;99.90
52459;DHT22;38372;52.902;6.024;2023-07-29T01:27:59;17.20;99.90
52459;DHT22;38372;52.902;6.024;2023-07-29T01:30:30;17.10;99.90
52459;DHT22;38372;52.902;6.024;2023-07-29T01:33:09;17.10;99.90
52459;DHT22;38372;52.902;6.024;2023-07-29T01:35:48;17.10;99.90
52459;DHT22;38372;52.902;6.024;2023-07-29T01:38:29;17.10;99.90
52459;DHT22;38372;52.902;6.024;2023-07-29T01:40:58;17.00;99.90
52459;DHT22;38372;52.902;6.024;2023-07-29T01:43:27;17.10;99.90
52459;DHT22;38372;52.902;6.024;2023-07-29T01:45:54;17.00;99.90
52459;DHT22;38372;52.902;6.024;2023-07-29T01:48:19;17.00;99.90
52459;DHT22;38372;52.902;6.024;2023-07-29T01:50:45;17.00;99.90
52459;DHT22;38372;52.902;6.024;2023-07-29T01:53:11;16.90;99.90
52459;DHT22;38372;52.902;6.024;2023-07-29T01:55:37;17.00;99.90
52459;DHT22;38372;52.902;6.024;2023-07-29T01:58:03;16.90;99.90
52459;DHT22;38372;52.902;6.024;2023-07-29T02:00:28;16.80;99.90
52459;DHT22;38372;52.902;6.024;2023-07-29T02:02:54;16.80;99.90
52459;DHT22;38372;52.902;6.024;2023-07-29T02:05:20;16.80;99.90
52459;DHT22;38372;52.902;6.024;2023-07-29T02:07:45;16.80;99.90
52459;DHT22;38372;52.902;6.024;2023-07-29T02:10:11;16.70;99.90
52459;DHT22;38372;52.902;6.024;2023-07-29T02:12:37;16.70;99.90
52459;DHT22;38372;52.902;6.024;2023-07-29T02:15:03;16.70;99.90
52459;DHT22;38372;52.902;6.024;2023-07-29T02:17:30;16.60;99.90
52459;DHT22;38372;52.902;6.024;2023-07-29T02:19:56;16.60;99.90
52459;DHT22;38372;52.902;6.024;2023-07-29T02:22:22;16.60;99.90
52459;DHT22;38372;52.902;6.024;2023-07-29T02:24:48;16.50;99.90
52459;DHT22;38372;52.902;6.024;2023-07-29T02:27:13;16.50;99.90
52459;DHT22;38372;52.902;6.024;2023-07-29T02:29:39;16.50;99.90
52459;DHT22;38372;52.902;6.024;2023-07-29T02:32:06;16.50;99.90
52459;DHT22;38372;52.902;6.024;2023-07-29T02:34:32;16.50;99.90
52459;DHT22;38372;52.902;6.024;2023-07-29T02:36:57;16.40;99.90
52459;DHT22;38372;52.902;6.024;2023-07-29T02:39:23;16.40;99.90
52459;DHT22;38372;52.902;6.024;2023-07-29T02:41:49;16.40;99.90
52459;DHT22;38372;52.902;6.024;2023-07-29T02:44:15;16.40;99.90
52459;DHT22;38372;52.902;6.024;2023-07-29T02:46:41;16.40;99.90
52459;DHT22;38372;52.902;6.024;2023-07-29T02:49:07;16.30;99.90
52459;DHT22;38372;52.902;6.024;2023-07-29T02:51:33;16.30;99.90
52459;DHT22;38372;52.902;6.024;2023-07-29T02:53:59;16.30;99.90
52459;DHT22;38372;52.902;6.024;2023-07-29T02:56:24;16.30;99.90
52459;DHT22;38372;52.902;6.024;2023-07-29T02:58:50;16.20;99.90
52459;DHT22;38372;52.902;6.024;2023-07-29T03:01:18;16.20;99.90
52459;DHT22;38372;52.902;6.024;2023-07-29T03:03:44;16.20;99.90
52459;DHT22;38372;52.902;6.024;2023-07-29T03:06:12;16.20;99.90
52459;DHT22;38372;52.902;6.024;2023-07-29T03:08:38;16.20;99.90
52459;DHT22;38372;52.902;6.024;2023-07-29T03:11:14;16.10;99.90
52459;DHT22;38372;52.902;6.024;2023-07-29T03:13:41;16.10;99.90
52459;DHT22;38372;52.902;6.024;2023-07-29T03:16:16;16.20;99.90
52459;DHT22;38372;52.902;6.024;2023-07-29T03:18:43;16.20;99.90
52459;DHT22;38372;52.902;6.024;2023-07-29T03:21:10;16.10;99.90
52459;DHT22;38372;52.902;6.024;2023-07-29T03:23:37;16.20;99.90
52459;DHT22;38372;52.902;6.024;2023-07-29T03:26:03;16.20;99.90
52459;DHT22;38372;52.902;6.024;2023-07-29T03:28:40;16.20;99.90
52459;DHT22;38372;52.902;6.024;2023-07-29T03:31:06;16.20;99.90
52459;DHT22;38372;52.902;6.024;2023-07-29T03:33:32;16.10;99.90
52459;DHT22;38372;52.902;6.024;2023-07-29T03:35:58;16.10;99.90
52459;DHT22;38372;52.902;6.024;2023-07-29T03:38:24;16.10;99.90
52459;DHT22;38372;52.902;6.024;2023-07-29T03:40:50;16.20;99.90
52459;DHT22;38372;52.902;6.024;2023-07-29T03:43:16;16.20;99.90
52459;DHT22;38372;52.902;6.024;2023-07-29T03:45:42;16.20;99.90
52459;DHT22;38372;52.902;6.024;2023-07-29T03:48:08;16.20;99.90
52459;DHT22;38372;52.902;6.024;2023-07-29T03:50:35;16.20;99.90
52459;DHT22;38372;52.902;6.024;2023-07-29T03:53:01;16.20;99.90
52459;DHT22;38372;52.902;6.024;2023-07-29T03:55:27;16.20;99.90
52459;DHT22;38372;52.902;6.024;2023-07-29T03:57:59;16.20;99.90
52459;DHT22;38372;52.902;6.024;2023-07-29T04:00:24;16.20;99.90
52459;DHT22;38372;52.902;6.024;2023-07-29T04:02:50;16.10;99.90
52459;DHT22;38372;52.902;6.024;2023-07-29T04:05:17;16.20;99.90
52459;DHT22;38372;52.902;6.024;2023-07-29T04:07:42;16.10;99.90
52459;DHT22;38372;52.902;6.024;2023-07-29T04:10:08;16.10;99.90
52459;DHT22;38372;52.902;6.024;2023-07-29T04:12:34;16.10;99.90
52459;DHT22;38372;52.902;6.024;2023-07-29T04:15:00;16.10;99.90
52459;DHT22;38372;52.902;6.024;2023-07-29T04:17:26;16.10;99.90
52459;DHT22;38372;52.902;6.024;2023-07-29T04:19:52;16.10;99.90
52459;DHT22;38372;52.902;6.024;2023-07-29T04:22:17;16.10;99.90
52459;DHT22;38372;52.902;6.024;2023-07-29T04:24:43;16.10;99.90
52459;DHT22;38372;52.902;6.024;2023-07-29T04:27:09;16.10;99.90
52459;DHT22;38372;52.902;6.024;2023-07-29T04:29:35;16.10;99.90
52459;DHT22;38372;52.902;6.024;2023-07-29T04:32:04;16.20;99.90
52459;DHT22;38372;52.902;6.024;2023-07-29T04:34:29;16.10;99.90
52459;DHT22;38372;52.902;6.024;2023-07-29T04:36:55;16.10;99.90
52459;DHT22;38372;52.902;6.024;2023-07-29T04:39:21;16.20;99.90
52459;DHT22;38372;52.902;6.024;2023-07-29T04:41:47;16.20;99.90
52459;DHT22;38372;52.902;6.024;2023-07-29T04:44:12;16.20;99.90
52459;DHT22;38372;52.902;6.024;2023-07-29T04:46:38;16.20;99.90
52459;DHT22;38372;52.902;6.024;2023-07-29T04:49:04;16.20;99.90
52459;DHT22;38372;52.902;6.024;2023-07-29T04:51:30;16.20;99.90
52459;DHT22;38372;52.902;6.024;2023-07-29T04:53:57;16.30;99.90
52459;DHT22;38372;52.902;6.024;2023-07-29T04:56:23;16.30;99.90
52459;DHT22;38372;52.902;6.024;2023-07-29T04:58:49;16.30;99.90
52459;DHT22;38372;52.902;6.024;2023-07-29T05:01:15;16.30;99.90
52459;DHT22;38372;52.902;6.024;2023-07-29T05:03:40;16.40;99.90
52459;DHT22;38372;52.902;6.024;2023-07-29T05:06:06;16.40;99.90
52459;DHT22;38372;52.902;6.024;2023-07-29T05:08:32;16.40;99.90
52459;DHT22;38372;52.902;6.024;2023-07-29T05:10:58;16.50;99.90
52459;DHT22;38372;52.902;6.024;2023-07-29T05:13:23;16.50;99.90
52459;DHT22;38372;52.902;6.024;2023-07-29T05:15:49;16.50;99.90
52459;DHT22;38372;52.902;6.024;2023-07-29T05:18:16;16.50;99.90
52459;DHT22;38372;52.902;6.024;2023-07-29T05:20:42;16.50;99.90
52459;DHT22;38372;52.902;6.024;2023-07-29T05:23:08;16.50;99.90
52459;DHT22;38372;52.902;6.024;2023-07-29T05:25:34;16.50;99.90
52459;DHT22;38372;52.902;6.024;2023-07-29T05:28:02;16.50;99.90
52459;DHT22;38372;52.902;6.024;2023-07-29T05:30:29;16.50;99.90
52459;DHT22;38372;52.902;6.024;2023-07-29T05:33:00;16.50;99.90
52459;DHT22;38372;52.902;6.024;2023-07-29T05:35:26;16.60;99.90
52459;DHT22;38372;52.902;6.024;2023-07-29T05:37:52;16.60;99.90
52459;DHT22;38372;52.902;6.024;2023-07-29T05:40:18;16.60;99.90
52459;DHT22;38372;52.902;6.024;2023-07-29T05:42:44;16.70;99.90
52459;DHT22;38372;52.902;6.024;2023-07-29T05:45:11;16.70;99.90
52459;DHT22;38372;52.902;6.024;2023-07-29T05:47:37;16.80;99.90
52459;DHT22;38372;52.902;6.024;2023-07-29T05:50:03;16.80;99.90
52459;DHT22;38372;52.902;6.024;2023-07-29T05:52:33;16.90;99.90
52459;DHT22;38372;52.902;6.024;2023-07-29T05:54:59;16.90;99.90
52459;DHT22;38372;52.902;6.024;2023-07-29T05:57:25;17.00;99.90
52459;DHT22;38372;52.902;6.024;2023-07-29T05:59:50;17.00;99.90
52459;DHT22;38372;52.902;6.024;2023-07-29T06:02:16;17.10;99.90
52459;DHT22;38372;52.902;6.024;2023-07-29T06:04:42;17.20;99.90
52459;DHT22;38372;52.902;6.024;2023-07-29T06:07:07;17.30;99.90
52459;DHT22;38372;52.902;6.024;2023-07-29T06:09:33;17.40;99.90
52459;DHT22;38372;52.902;6.024;2023-07-29T06:11:59;17.50;99.90
52459;DHT22;38372;52.902;6.024;2023-07-29T06:14:25;17.70;99.90
52459;DHT22;38372;52.902;6.024;2023-07-29T06:16:51;17.80;99.90
52459;DHT22;38372;52.902;6.024;2023-07-29T06:19:19;17.80;99.90
52459;DHT22;38372;52.902;6.024;2023-07-29T06:21:45;17.90;99.90
52459;DHT22;38372;52.902;6.024;2023-07-29T06:24:11;17.90;99.90
52459;DHT22;38372;52.902;6.024;2023-07-29T06:26:36;18.00;99.90
52459;DHT22;38372;52.902;6.024;2023-07-29T06:29:02;18.20;99.90
52459;DHT22;38372;52.902;6.024;2023-07-29T06:31:28;18.20;99.90
52459;DHT22;38372;52.902;6.024;2023-07-29T06:33:55;18.30;99.90
52459;DHT22;38372;52.902;6.024;2023-07-29T06:36:21;18.40;99.90
52459;DHT22;38372;52.902;6.024;2023-07-29T06:38:47;18.40;99.90
52459;DHT22;38372;52.902;6.024;2023-07-29T06:41:12;18.50;99.90
52459;DHT22;38372;52.902;6.024;2023-07-29T06:43:38;18.70;99.90
52459;DHT22;38372;52.902;6.024;2023-07-29T06:46:04;18.80;99.90
52459;DHT22;38372;52.902;6.024;2023-07-29T06:48:30;18.90;99.90
52459;DHT22;38372;52.902;6.024;2023-07-29T06:50:55;18.90;99.90
52459;DHT22;38372;52.902;6.024;2023-07-29T06:53:28;18.90;99.90
52459;DHT22;38372;52.902;6.024;2023-07-29T06:55:54;18.90;99.90
52459;DHT22;38372;52.902;6.024;2023-07-29T06:58:20;18.90;99.90
52459;DHT22;38372;52.902;6.024;2023-07-29T07:00:46;18.80;99.90
52459;DHT22;38372;52.902;6.024;2023-07-29T07:03:12;18.80;99.90
52459;DHT22;38372;52.902;6.024;2023-07-29T07:05:37;18.80;99.90
52459;DHT22;38372;52.902;6.024;2023-07-29T07:08:03;18.80;99.90
52459;DHT22;38372;52.902;6.024;2023-07-29T07:10:29;18.90;99.90
52459;DHT22;38372;52.902;6.024;2023-07-29T07:12:55;19.10;99.90
52459;DHT22;38372;52.902;6.024;2023-07-29T07:15:21;19.40;99.90
52459;DHT22;38372;52.902;6.024;2023-07-29T07:17:46;19.60;99.90
52459;DHT22;38372;52.902;6.024;2023-07-29T07:20:12;19.80;99.90
52459;DHT22;38372;52.902;6.024;2023-07-29T07:22:38;19.90;99.90
52459;DHT22;38372;52.902;6.024;2023-07-29T07:25:05;19.90;99.90
52459;DHT22;38372;52.902;6.024;2023-07-29T07:27:30;20.00;99.90
52459;DHT22;38372;52.902;6.024;2023-07-29T07:29:56;20.00;99.90
52459;DHT22;38372;52.902;6.024;2023-07-29T07:32:22;19.80;99.90
52459;DHT22;38372;52.902;6.024;2023-07-29T07:34:48;19.70;99.90
52459;DHT22;38372;52.902;6.024;2023-07-29T07:37:13;19.60;99.90
52459;DHT22;38372;52.902;6.024;2023-07-29T07:39:39;19.50;99.90
52459;DHT22;38372;52.902;6.024;2023-07-29T07:42:05;19.40;99.90
52459;DHT22;38372;52.902;6.024;2023-07-29T07:44:31;19.40;99.90
52459;DHT22;38372;52.902;6.024;2023-07-29T07:46:57;19.30;99.90
52459;DHT22;38372;52.902;6.024;2023-07-29T07:49:23;19.30;99.90
52459;DHT22;38372;52.902;6.024;2023-07-29T07:51:48;19.50;99.90
52459;DHT22;38372;52.902;6.024;2023-07-29T07:54:14;19.60;99.90
52459;DHT22;38372;52.902;6.024;2023-07-29T07:56:40;19.80;99.90
52459;DHT22;38372;52.902;6.024;2023-07-29T07:59:06;19.90;99.90
52459;DHT22;38372;52.902;6.024;2023-07-29T08:01:38;20.00;99.90
52459;DHT22;38372;52.902;6.024;2023-07-29T08:04:05;19.90;99.90
52459;DHT22;38372;52.902;6.024;2023-07-29T08:06:31;20.00;99.90
52459;DHT22;38372;52.902;6.024;2023-07-29T08:08:57;20.20;99.90
52459;DHT22;38372;52.902;6.024;2023-07-29T08:11:23;20.50;99.90
52459;DHT22;38372;52.902;6.024;2023-07-29T08:13:49;20.50;99.90
52459;DHT22;38372;52.902;6.024;2023-07-29T08:16:15;20.50;99.90
52459;DHT22;38372;52.902;6.024;2023-07-29T08:18:41;20.50;99.90
52459;DHT22;38372;52.902;6.024;2023-07-29T08:21:06;20.80;99.90
52459;DHT22;38372;52.902;6.024;2023-07-29T08:23:34;21.30;99.90
52459;DHT22;38372;52.902;6.024;2023-07-29T08:26:02;21.50;99.90
52459;DHT22;38372;52.902;6.024;2023-07-29T08:28:28;21.60;99.90
52459;DHT22;38372;52.902;6.024;2023-07-29T08:30:55;21.90;99.90
52459;DHT22;38372;52.902;6.024;2023-07-29T08:33:20;22.00;99.90
52459;DHT22;38372;52.902;6.024;2023-07-29T08:35:46;21.90;99.90
52459;DHT22;38372;52.902;6.024;2023-07-29T08:38:12;21.90;99.90
52459;DHT22;38372;52.902;6.024;2023-07-29T08:40:43;22.00;99.90
52459;DHT22;38372;52.902;6.024;2023-07-29T08:43:11;22.20;99.90
52459;DHT22;38372;52.902;6.024;2023-07-29T08:45:38;22.20;99.90
52459;DHT22;38372;52.902;6.024;2023-07-29T08:48:08;22.00;99.90
52459;DHT22;38372;52.902;6.024;2023-07-29T08:50:36;21.70;99.90
52459;DHT22;38372;52.902;6.024;2023-07-29T08:53:06;21.40;99.90
52459;DHT22;38372;52.902;6.024;2023-07-29T08:55:32;21.30;99.90
52459;DHT22;38372;52.902;6.024;2023-07-29T08:57:59;21.40;99.90
52459;DHT22;38372;52.902;6.024;2023-07-29T09:00:26;21.60;99.90
52459;DHT22;38372;52.902;6.024;2023-07-29T09:02:53;21.70;99.90
52459;DHT22;38372;52.902;6.024;2023-07-29T09:05:20;21.70;99.90
52459;DHT22;38372;52.902;6.024;2023-07-29T09:07:47;21.70;99.90
52459;DHT22;38372;52.902;6.024;2023-07-29T09:10:14;21.70;99.90
52459;DHT22;38372;52.902;6.024;2023-07-29T09:12:40;21.70;99.90
52459;DHT22;38372;52.902;6.024;2023-07-29T09:15:06;21.60;99.90
52459;DHT22;38372;52.902;6.024;2023-07-29T09:17:35;21.60;99.90
52459;DHT22;38372;52.902;6.024;2023-07-29T09:20:01;21.60;99.90
52459;DHT22;38372;52.902;6.024;2023-07-29T09:22:27;21.60;99.90
52459;DHT22;38372;52.902;6.024;2023-07-29T09:24:53;21.60;99.90
52459;DHT22;38372;52.902;6.024;2023-07-29T09:27:26;21.70;99.90
52459;DHT22;38372;52.902;6.024;2023-07-29T09:29:53;22.20;99.90
52459;DHT22;38372;52.902;6.024;2023-07-29T09:32:20;22.50;99.90
52459;DHT22;38372;52.902;6.024;2023-07-29T09:34:46;22.60;99.90
52459;DHT22;38372;52.902;6.024;2023-07-29T09:37:17;22.60;99.90
52459;DHT22;38372;52.902;6.024;2023-07-29T09:39:47;22.60;99.90
52459;DHT22;38372;52.902;6.024;2023-07-29T09:42:20;22.50;99.90
52459;DHT22;38372;52.902;6.024;2023-07-29T09:44:50;22.40;99.90
52459;DHT22;38372;52.902;6.024;2023-07-29T09:47:23;22.30;99.90
52459;DHT22;38372;52.902;6.024;2023-07-29T09:49:51;22.10;99.90
52459;DHT22;38372;52.902;6.024;2023-07-29T09:52:21;21.90;99.90
52459;DHT22;38372;52.902;6.024;2023-07-29T09:54:47;21.70;99.90
52459;DHT22;38372;52.902;6.024;2023-07-29T09:57:18;21.50;99.90
52459;DHT22;38372;52.902;6.024;2023-07-29T09:59:57;21.40;99.90
52459;DHT22;38372;52.902;6.024;2023-07-29T10:02:23;21.30;99.90
52459;DHT22;38372;52.902;6.024;2023-07-29T10:04:52;21.30;99.90
52459;DHT22;38372;52.902;6.024;2023-07-29T10:07:18;21.20;99.90
52459;DHT22;38372;52.902;6.024;2023-07-29T10:09:45;21.00;99.90
52459;DHT22;38372;52.902;6.024;2023-07-29T10:12:11;20.80;99.90
52459;DHT22;38372;52.902;6.024;2023-07-29T10:14:38;20.70;99.90
52459;DHT22;38372;52.902;6.024;2023-07-29T10:17:05;20.60;99.90
52459;DHT22;38372;52.902;6.024;2023-07-29T10:19:31;20.80;99.90
52459;DHT22;38372;52.902;6.024;2023-07-29T10:21:59;21.10;99.90
52459;DHT22;38372;52.902;6.024;2023-07-29T10:24:30;21.40;99.90
52459;DHT22;38372;52.902;6.024;2023-07-29T10:26:59;21.60;99.90
52459;DHT22;38372;52.902;6.024;2023-07-29T10:29:30;21.50;99.90
52459;DHT22;38372;52.902;6.024;2023-07-29T10:31:57;21.30;99.90
52459;DHT22;38372;52.902;6.024;2023-07-29T10:34:26;21.30;99.90
52459;DHT22;38372;52.902;6.024;2023-07-29T10:36:53;21.40;99.90
52459;DHT22;38372;52.902;6.024;2023-07-29T10:39:20;21.40;99.90
52459;DHT22;38372;52.902;6.024;2023-07-29T10:42:01;21.30;99.90
52459;DHT22;38372;52.902;6.024;2023-07-29T10:47:22;21.30;99.90
52459;DHT22;38372;52.902;6.024;2023-07-29T10:49:51;21.40;99.90
52459;DHT22;38372;52.902;6.024;2023-07-29T10:55:03;21.70;99.90
52459;DHT22;38372;52.902;6.024;2023-07-29T10:57:37;21.90;99.90
52459;DHT22;38372;52.902;6.024;2023-07-29T11:00:05;22.00;99.90
52459;DHT22;38372;52.902;6.024;2023-07-29T11:02:32;22.10;99.90
52459;DHT22;38372;52.902;6.024;2023-07-29T11:05:08;22.20;99.90
52459;DHT22;38372;52.902;6.024;2023-07-29T11:07:48;22.20;99.90
52459;DHT22;38372;52.902;6.024;2023-07-29T11:10:14;22.20;99.90
52459;DHT22;38372;52.902;6.024;2023-07-29T11:12:53;22.10;99.90
52459;DHT22;38372;52.902;6.024;2023-07-29T11:15:22;21.90;99.90
52459;DHT22;38372;52.902;6.024;2023-07-29T11:17:58;21.70;99.90
52459;DHT22;38372;52.902;6.024;2023-07-29T11:20:26;21.60;99.90
52459;DHT22;38372;52.902;6.024;2023-07-29T11:22:57;21.50;99.90
52459;DHT22;38372;52.902;6.024;2023-07-29T11:25:24;21.30;99.90
52459;DHT22;38372;52.902;6.024;2023-07-29T11:27:55;21.30;99.90
52459;DHT22;38372;52.902;6.024;2023-07-29T11:30:21;21.30;99.90
52459;DHT22;38372;52.902;6.024;2023-07-29T11:32:48;21.30;99.90
52459;DHT22;38372;52.902;6.024;2023-07-29T11:35:16;21.50;99.90
52459;DHT22;38372;52.902;6.024;2023-07-29T11:37:47;21.90;99.90
52459;DHT22;38372;52.902;6.024;2023-07-29T11:40:18;22.40;99.90
52459;DHT22;38372;52.902;6.024;2023-07-29T11:42:45;22.70;99.90
52459;DHT22;38372;52.902;6.024;2023-07-29T11:45:12;22.80;99.90
52459;DHT22;38372;52.902;6.024;2023-07-29T11:47:38;22.90;99.90
52459;DHT22;38372;52.902;6.024;2023-07-29T11:50:08;22.90;99.90
52459;DHT22;38372;52.902;6.024;2023-07-29T11:52:36;23.00;99.90
52459;DHT22;38372;52.902;6.024;2023-07-29T11:55:03;23.10;99.90
52459;DHT22;38372;52.902;6.024;2023-07-29T11:57:39;23.10;99.90
52459;DHT22;38372;52.902;6.024;2023-07-29T12:00:10;22.90;99.90
52459;DHT22;38372;52.902;6.024;2023-07-29T12:02:40;22.60;99.90
52459;DHT22;38372;52.902;6.024;2023-07-29T12:05:08;22.50;99.90
52459;DHT22;38372;52.902;6.024;2023-07-29T12:07:34;22.30;99.90
52459;DHT22;38372;52.902;6.024;2023-07-29T12:10:01;22.20;99.90
52459;DHT22;38372;52.902;6.024;2023-07-29T12:12:29;22.20;99.90
52459;DHT22;38372;52.902;6.024;2023-07-29T12:14:55;22.20;99.90
52459;DHT22;38372;52.902;6.024;2023-07-29T12:17:21;22.20;99.90
52459;DHT22;38372;52.902;6.024;2023-07-29T12:19:46;22.00;99.90
52459;DHT22;38372;52.902;6.024;2023-07-29T12:22:18;21.90;99.90
52459;DHT22;38372;52.902;6.024;2023-07-29T12:24:44;21.90;99.90
52459;DHT22;38372;52.902;6.024;2023-07-29T12:27:12;22.00;99.90
52459;DHT22;38372;52.902;6.024;2023-07-29T12:29:42;22.10;99.90
52459;DHT22;38372;52.902;6.024;2023-07-29T12:32:09;22.20;99.90
52459;DHT22;38372;52.902;6.024;2023-07-29T12:34:37;22.20;99.90
52459;DHT22;38372;52.902;6.024;2023-07-29T12:37:04;22.30;99.90
52459;DHT22;38372;52.902;6.024;2023-07-29T12:39:32;22.30;99.90
52459;DHT22;38372;52.902;6.024;2023-07-29T12:41:59;22.40;99.90
52459;DHT22;38372;52.902;6.024;2023-07-29T12:44:30;22.60;99.90
52459;DHT22;38372;52.902;6.024;2023-07-29T12:46:56;23.00;99.90
52459;DHT22;38372;52.902;6.024;2023-07-29T12:49:22;23.10;99.90
52459;DHT22;38372;52.902;6.024;2023-07-29T12:51:48;23.20;99.90
52459;DHT22;38372;52.902;6.024;2023-07-29T12:54:14;23.30;99.90
52459;DHT22;38372;52.902;6.024;2023-07-29T12:56:40;23.40;99.90
52459;DHT22;38372;52.902;6.024;2023-07-29T12:59:05;23.50;99.90
52459;DHT22;38372;52.902;6.024;2023-07-29T13:01:31;23.50;99.90
52459;DHT22;38372;52.902;6.024;2023-07-29T13:03:57;23.50;99.90
52459;DHT22;38372;52.902;6.024;2023-07-29T13:06:23;23.40;99.90
52459;DHT22;38372;52.902;6.024;2023-07-29T13:08:49;23.30;99.90
52459;DHT22;38372;52.902;6.024;2023-07-29T13:11:16;23.10;99.90
52459;DHT22;38372;52.902;6.024;2023-07-29T13:13:41;23.00;99.90
52459;DHT22;38372;52.902;6.024;2023-07-29T13:16:07;23.00;99.90
52459;DHT22;38372;52.902;6.024;2023-07-29T13:18:33;22.90;99.90
52459;DHT22;38372;52.902;6.024;2023-07-29T13:20:59;22.80;99.90
52459;DHT22;38372;52.902;6.024;2023-07-29T13:23:28;22.70;99.90
52459;DHT22;38372;52.902;6.024;2023-07-29T13:25:55;22.80;99.90
52459;DHT22;38372;52.902;6.024;2023-07-29T13:28:21;23.10;99.90
52459;DHT22;38372;52.902;6.024;2023-07-29T13:30:47;23.40;99.90
52459;DHT22;38372;52.902;6.024;2023-07-29T13:33:13;23.60;99.90
52459;DHT22;38372;52.902;6.024;2023-07-29T13:35:38;23.70;99.90
52459;DHT22;38372;52.902;6.024;2023-07-29T13:38:04;23.50;99.90
52459;DHT22;38372;52.902;6.024;2023-07-29T13:40:31;23.30;99.90
52459;DHT22;38372;52.902;6.024;2023-07-29T13:42:57;23.40;99.90
52459;DHT22;38372;52.902;6.024;2023-07-29T13:45:23;23.60;99.90
52459;DHT22;38372;52.902;6.024;2023-07-29T13:47:49;23.90;99.90
52459;DHT22;38372;52.902;6.024;2023-07-29T13:50:16;24.00;99.90
52459;DHT22;38372;52.902;6.024;2023-07-29T13:52:42;24.00;99.90
52459;DHT22;38372;52.902;6.024;2023-07-29T13:55:08;24.00;99.90
52459;DHT22;38372;52.902;6.024;2023-07-29T13:57:34;23.60;99.90
52459;DHT22;38372;52.902;6.024;2023-07-29T13:59:59;23.30;99.90
52459;DHT22;38372;52.902;6.024;2023-07-29T14:02:25;23.10;99.90
52459;DHT22;38372;52.902;6.024;2023-07-29T14:04:56;23.10;99.90
52459;DHT22;38372;52.902;6.024;2023-07-29T14:07:22;23.10;99.90
52459;DHT22;38372;52.902;6.024;2023-07-29T14:09:47;22.80;99.90
52459;DHT22;38372;52.902;6.024;2023-07-29T14:12:13;22.60;99.90
52459;DHT22;38372;52.902;6.024;2023-07-29T14:14:41;22.60;99.90
52459;DHT22;38372;52.902;6.024;2023-07-29T14:17:07;22.60;99.90
52459;DHT22;38372;52.902;6.024;2023-07-29T14:19:37;22.60;99.90
52459;DHT22;38372;52.902;6.024;2023-07-29T14:22:03;22.50;99.90
52459;DHT22;38372;52.902;6.024;2023-07-29T14:24:29;22.50;99.90
52459;DHT22;38372;52.902;6.024;2023-07-29T14:26:54;22.70;99.90
52459;DHT22;38372;52.902;6.024;2023-07-29T14:29:20;22.90;99.90
52459;DHT22;38372;52.902;6.024;2023-07-29T14:31:46;23.00;99.90
52459;DHT22;38372;52.902;6.024;2023-07-29T14:34:12;22.90;99.90
52459;DHT22;38372;52.902;6.024;2023-07-29T14:36:37;22.80;99.90
52459;DHT22;38372;52.902;6.024;2023-07-29T14:39:03;22.80;99.90
52459;DHT22;38372;52.902;6.024;2023-07-29T14:41:30;22.90;99.90
52459;DHT22;38372;52.902;6.024;2023-07-29T14:43:56;23.30;99.90
52459;DHT22;38372;52.902;6.024;2023-07-29T14:46:22;24.10;99.90
52459;DHT22;38372;52.902;6.024;2023-07-29T14:48:48;24.80;99.90
52459;DHT22;38372;52.902;6.024;2023-07-29T14:51:14;25.30;99.90
52459;DHT22;38372;52.902;6.024;2023-07-29T14:53:40;24.80;99.90
52459;DHT22;38372;52.902;6.024;2023-07-29T14:56:06;24.60;99.90
52459;DHT22;38372;52.902;6.024;2023-07-29T14:58:31;24.50;99.90
52459;DHT22;38372;52.902;6.024;2023-07-29T15:00:57;24.20;99.90
52459;DHT22;38372;52.902;6.024;2023-07-29T15:03:24;24.00;99.90
52459;DHT22;38372;52.902;6.024;2023-07-29T15:05:50;23.70;99.90
52459;DHT22;38372;52.902;6.024;2023-07-29T15:08:16;23.40;99.90
52459;DHT22;38372;52.902;6.024;2023-07-29T15:10:46;23.10;99.90
52459;DHT22;38372;52.902;6.024;2023-07-29T15:13:12;22.90;99.90
52459;DHT22;38372;52.902;6.024;2023-07-29T15:15:41;22.80;99.90
52459;DHT22;38372;52.902;6.024;2023-07-29T15:18:07;22.70;99.90
52459;DHT22;38372;52.902;6.024;2023-07-29T15:20:32;22.60;99.90
52459;DHT22;38372;52.902;6.024;2023-07-29T15:22:58;22.50;99.90
52459;DHT22;38372;52.902;6.024;2023-07-29T15:25:24;22.50;99.90
52459;DHT22;38372;52.902;6.024;2023-07-29T15:27:50;22.40;99.90
52459;DHT22;38372;52.902;6.024;2023-07-29T15:30:15;22.30;99.90
52459;DHT22;38372;52.902;6.024;2023-07-29T15:32:41;22.20;99.90
52459;DHT22;38372;52.902;6.024;2023-07-29T15:35:11;22.10;99.90
52459;DHT22;38372;52.902;6.024;2023-07-29T15:37:37;21.90;99.90
52459;DHT22;38372;52.902;6.024;2023-07-29T15:40:03;21.90;99.90